sensor_id;sensor_type;location;lat;lon;timestamp;pressure;altitude;pressure_sealevel;temperature;humidity
59971;BME280;45825;45.434;9.116;2023-05-24T00:00:22;99944.63;;;21.82;57.96
59971;BME280;45825;45.434;9.116;2023-05-24T00:02:48;99946.94;;;21.77;58.15
59971;BME280;45825;45.434;9.116;2023-05-24T00:05:13;99951.63;;;21.67;58.15
59971;BME280;45825;45.434;9.116;2023-05-24T00:07:40;99948.06;;;21.58;58.38
59971;BME280;45825;45.434;9.116;2023-05-24T00:10:06;99956.94;;;21.58;58.47
59971;BME280;45825;45.434;9.116;2023-05-24T00:12:32;99948.75;;;21.60;58.80
59971;BME280;45825;45.434;9.116;2023-05-24T00:14:58;99953.09;;;21.61;59.02
59971;BME280;45825;45.434;9.116;2023-05-24T00:17:23;99943.06;;;21.63;59.16
59971;BME280;45825;45.434;9.116;2023-05-24T00:19:49;99941.88;;;21.66;59.60
59971;BME280;45825;45.434;9.116;2023-05-24T02:24:07;99935.78;;;20.79;65.01
59971;BME280;45825;45.434;9.116;2023-05-24T02:26:36;99938.44;;;20.79;65.31
59971;BME280;45825;45.434;9.116;2023-05-24T02:29:02;99946.63;;;20.77;65.26
59971;BME280;45825;45.434;9.116;2023-05-24T02:31:27;99947.09;;;20.73;65.30
59971;BME280;45825;45.434;9.116;2023-05-24T02:33:57;99942.69;;;20.63;65.25
59971;BME280;45825;45.434;9.116;2023-05-24T02:36:23;99950.88;;;20.62;65.89
59971;BME280;45825;45.434;9.116;2023-05-24T02:38:49;99947.38;;;20.61;66.18
59971;BME280;45825;45.434;9.116;2023-05-24T02:41:15;99945.06;;;20.66;66.13
59971;BME280;45825;45.434;9.116;2023-05-24T02:43:45;99935.06;;;20.69;65.84
59971;BME280;45825;45.434;9.116;2023-05-24T02:46:11;99935.69;;;20.62;66.36
59971;BME280;45825;45.434;9.116;2023-05-24T02:48:36;99936.16;;;20.58;66.86
59971;BME280;45825;45.434;9.116;2023-05-24T02:51:02;99934.66;;;20.55;66.97
59971;BME280;45825;45.434;9.116;2023-05-24T02:53:28;99934.28;;;20.50;67.04
59971;BME280;45825;45.434;9.116;2023-05-24T02:55:54;99931.88;;;20.38;66.74
59971;BME280;45825;45.434;9.116;2023-05-24T02:58:19;99931.81;;;20.30;67.14
59971;BME280;45825;45.434;9.116;2023-05-24T03:00:44;99925.66;;;20.30;67.00
59971;BME280;45825;45.434;9.116;2023-05-24T03:03:09;99914.28;;;20.28;67.31
59971;BME280;45825;45.434;9.116;2023-05-24T03:05:35;99919.78;;;20.26;67.03
59971;BME280;45825;45.434;9.116;2023-05-24T03:08:00;99918.09;;;20.25;67.42
59971;BME280;45825;45.434;9.116;2023-05-24T03:10:26;99921.38;;;20.19;67.88
59971;BME280;45825;45.434;9.116;2023-05-24T03:12:51;99913.84;;;20.14;67.86
59971;BME280;45825;45.434;9.116;2023-05-24T03:15:16;99925.38;;;20.15;67.67
59971;BME280;45825;45.434;9.116;2023-05-24T03:17:42;99929.19;;;20.12;67.99
59971;BME280;45825;45.434;9.116;2023-05-24T03:20:07;99918.81;;;20.09;67.92
59971;BME280;45825;45.434;9.116;2023-05-24T03:22:32;99929.03;;;20.14;68.12
59971;BME280;45825;45.434;9.116;2023-05-24T03:24:58;99929.03;;;20.14;67.87
59971;BME280;45825;45.434;9.116;2023-05-24T03:27:23;99927.72;;;20.18;67.41
59971;BME280;45825;45.434;9.116;2023-05-24T03:29:48;99929.38;;;20.10;67.37
59971;BME280;45825;45.434;9.116;2023-05-24T03:32:13;99937.13;;;20.04;67.55
59971;BME280;45825;45.434;9.116;2023-05-24T03:34:39;99936.91;;;19.97;68.29
59971;BME280;45825;45.434;9.116;2023-05-24T03:37:04;99939.75;;;19.95;68.58
59971;BME280;45825;45.434;9.116;2023-05-24T03:39:29;99942.09;;;19.99;68.84
59971;BME280;45825;45.434;9.116;2023-05-24T03:41:55;99942.44;;;19.95;69.04
59971;BME280;45825;45.434;9.116;2023-05-24T03:44:20;99940.25;;;19.99;69.33
59971;BME280;45825;45.434;9.116;2023-05-24T03:46:45;99951.78;;;20.00;68.99
59971;BME280;45825;45.434;9.116;2023-05-24T03:49:10;99948.50;;;20.06;69.02
59971;BME280;45825;45.434;9.116;2023-05-24T03:51:36;99951.00;;;20.07;69.37
59971;BME280;45825;45.434;9.116;2023-05-24T03:54:01;99946.34;;;20.09;69.20
59971;BME280;45825;45.434;9.116;2023-05-24T03:56:27;99959.25;;;20.14;68.33
59971;BME280;45825;45.434;9.116;2023-05-24T03:58:52;99962.47;;;20.00;69.02
59971;BME280;45825;45.434;9.116;2023-05-24T04:01:18;99959.47;;;20.03;68.66
59971;BME280;45825;45.434;9.116;2023-05-24T04:03:44;99966.00;;;20.00;69.41
59971;BME280;45825;45.434;9.116;2023-05-24T04:06:10;99968.66;;;20.00;69.07
59971;BME280;45825;45.434;9.116;2023-05-24T04:08:36;99974.00;;;20.00;69.12
59971;BME280;45825;45.434;9.116;2023-05-24T04:11:02;99967.03;;;19.89;69.34
59971;BME280;45825;45.434;9.116;2023-05-24T04:13:27;99965.22;;;19.90;69.42
59971;BME280;45825;45.434;9.116;2023-05-24T04:15:52;99971.53;;;19.89;69.14
59971;BME280;45825;45.434;9.116;2023-05-24T04:18:18;99962.81;;;19.87;69.58
59971;BME280;45825;45.434;9.116;2023-05-24T04:20:43;99967.13;;;19.79;70.10
59971;BME280;45825;45.434;9.116;2023-05-24T04:23:08;99966.47;;;19.86;70.34
59971;BME280;45825;45.434;9.116;2023-05-24T04:25:34;99974.88;;;19.91;69.95
59971;BME280;45825;45.434;9.116;2023-05-24T04:27:59;99968.00;;;19.88;70.39
59971;BME280;45825;45.434;9.116;2023-05-24T04:30:26;99974.03;;;19.90;70.28
59971;BME280;45825;45.434;9.116;2023-05-24T04:32:54;99969.69;;;19.89;70.57
59971;BME280;45825;45.434;9.116;2023-05-24T04:35:20;99968.69;;;19.90;70.94
59971;BME280;45825;45.434;9.116;2023-05-24T04:37:45;99967.44;;;19.94;70.35
59971;BME280;45825;45.434;9.116;2023-05-24T04:40:12;99974.59;;;19.94;70.77
59971;BME280;45825;45.434;9.116;2023-05-24T04:42:37;99969.25;;;19.94;70.92
59971;BME280;45825;45.434;9.116;2023-05-24T04:45:03;99982.00;;;20.00;71.10
59971;BME280;45825;45.434;9.116;2023-05-24T04:47:28;99982.97;;;19.99;71.44
59971;BME280;45825;45.434;9.116;2023-05-24T04:49:54;99978.81;;;19.96;71.41
59971;BME280;45825;45.434;9.116;2023-05-24T04:52:19;99971.78;;;19.95;71.07
59971;BME280;45825;45.434;9.116;2023-05-24T04:54:44;99980.63;;;19.96;71.53
59971;BME280;45825;45.434;9.116;2023-05-24T04:57:10;99984.03;;;19.88;71.34
59971;BME280;45825;45.434;9.116;2023-05-24T04:59:35;99990.63;;;19.94;70.71
59971;BME280;45825;45.434;9.116;2023-05-24T05:02:01;99986.38;;;19.91;70.40
59971;BME280;45825;45.434;9.116;2023-05-24T05:04:26;99990.06;;;19.90;70.32
59971;BME280;45825;45.434;9.116;2023-05-24T05:06:51;99996.69;;;19.86;70.50
59971;BME280;45825;45.434;9.116;2023-05-24T05:09:17;99991.66;;;19.83;70.87
59971;BME280;45825;45.434;9.116;2023-05-24T05:11:43;99989.50;;;19.87;70.93
59971;BME280;45825;45.434;9.116;2023-05-24T05:14:09;99989.50;;;19.96;71.14
59971;BME280;45825;45.434;9.116;2023-05-24T05:16:36;99988.09;;;20.10;71.05
59971;BME280;45825;45.434;9.116;2023-05-24T05:19:02;99986.25;;;20.11;71.19
59971;BME280;45825;45.434;9.116;2023-05-24T05:21:30;99995.63;;;20.15;70.92
59971;BME280;45825;45.434;9.116;2023-05-24T05:24:00;99990.53;;;20.22;70.79
59971;BME280;45825;45.434;9.116;2023-05-24T05:26:26;99992.03;;;20.24;69.72
59971;BME280;45825;45.434;9.116;2023-05-24T05:28:51;99981.28;;;20.34;69.35
59971;BME280;45825;45.434;9.116;2023-05-24T05:31:17;99982.50;;;20.40;68.59
59971;BME280;45825;45.434;9.116;2023-05-24T05:33:42;99983.16;;;20.42;69.15
59971;BME280;45825;45.434;9.116;2023-05-24T05:36:07;99985.22;;;20.48;69.17
59971;BME280;45825;45.434;9.116;2023-05-24T05:38:32;99985.56;;;20.54;69.78
59971;BME280;45825;45.434;9.116;2023-05-24T05:40:58;99986.63;;;20.61;70.87
59971;BME280;45825;45.434;9.116;2023-05-24T05:43:23;99982.84;;;20.72;71.28
59971;BME280;45825;45.434;9.116;2023-05-24T05:45:49;99981.03;;;20.80;70.76
59971;BME280;45825;45.434;9.116;2023-05-24T05:48:14;99987.13;;;20.83;70.78
59971;BME280;45825;45.434;9.116;2023-05-24T05:50:40;99985.47;;;20.90;70.46
59971;BME280;45825;45.434;9.116;2023-05-24T05:53:05;99988.38;;;21.05;70.19
59971;BME280;45825;45.434;9.116;2023-05-24T05:55:30;99985.91;;;21.12;69.87
59971;BME280;45825;45.434;9.116;2023-05-24T05:57:56;99982.44;;;21.28;69.30
59971;BME280;45825;45.434;9.116;2023-05-24T06:00:21;99987.16;;;21.34;68.16
59971;BME280;45825;45.434;9.116;2023-05-24T06:02:47;99987.50;;;21.39;67.75
59971;BME280;45825;45.434;9.116;2023-05-24T06:05:12;99989.19;;;21.48;67.11
59971;BME280;45825;45.434;9.116;2023-05-24T06:07:37;99995.56;;;21.47;67.47
59971;BME280;45825;45.434;9.116;2023-05-24T06:10:03;99992.91;;;21.56;65.92
59971;BME280;45825;45.434;9.116;2023-05-24T06:12:30;99986.13;;;21.70;66.67
59971;BME280;45825;45.434;9.116;2023-05-24T06:14:55;99986.81;;;21.80;64.30
59971;BME280;45825;45.434;9.116;2023-05-24T06:17:21;99987.63;;;21.89;63.80
59971;BME280;45825;45.434;9.116;2023-05-24T06:19:49;99986.66;;;21.98;62.53
59971;BME280;45825;45.434;9.116;2023-05-24T06:22:15;99987.16;;;22.02;62.96
59971;BME280;45825;45.434;9.116;2023-05-24T06:24:41;99990.16;;;22.07;62.67
59971;BME280;45825;45.434;9.116;2023-05-24T06:27:07;99996.88;;;22.11;62.77
59971;BME280;45825;45.434;9.116;2023-05-24T06:29:33;99990.66;;;22.11;62.96
59971;BME280;45825;45.434;9.116;2023-05-24T06:31:58;99992.16;;;22.22;67.11
59971;BME280;45825;45.434;9.116;2023-05-24T06:34:23;99995.34;;;22.17;66.62
59971;BME280;45825;45.434;9.116;2023-05-24T06:36:50;99990.81;;;22.09;64.04
59971;BME280;45825;45.434;9.116;2023-05-24T06:39:17;99990.00;;;22.17;63.96
59971;BME280;45825;45.434;9.116;2023-05-24T06:41:43;99993.50;;;22.26;63.34
59971;BME280;45825;45.434;9.116;2023-05-24T06:44:09;100001.34;;;22.44;62.57
59971;BME280;45825;45.434;9.116;2023-05-24T06:46:34;99997.66;;;22.37;62.38
59971;BME280;45825;45.434;9.116;2023-05-24T06:49:00;100002.19;;;22.53;61.22
59971;BME280;45825;45.434;9.116;2023-05-24T06:51:25;99994.16;;;22.61;61.55
59971;BME280;45825;45.434;9.116;2023-05-24T06:53:50;99996.31;;;22.66;61.11
59971;BME280;45825;45.434;9.116;2023-05-24T06:56:16;100000.50;;;22.77;61.85
59971;BME280;45825;45.434;9.116;2023-05-24T06:58:41;100007.69;;;22.84;60.85
59971;BME280;45825;45.434;9.116;2023-05-24T07:01:07;100007.34;;;22.87;61.22
59971;BME280;45825;45.434;9.116;2023-05-24T07:03:32;100008.00;;;22.89;60.27
59971;BME280;45825;45.434;9.116;2023-05-24T07:05:58;100002.13;;;22.94;60.28
59971;BME280;45825;45.434;9.116;2023-05-24T07:08:24;100005.44;;;22.96;59.65
59971;BME280;45825;45.434;9.116;2023-05-24T07:10:49;100011.50;;;22.98;59.35
59971;BME280;45825;45.434;9.116;2023-05-24T07:13:14;100008.09;;;23.05;59.72
59971;BME280;45825;45.434;9.116;2023-05-24T07:15:40;100014.28;;;23.13;59.44
59971;BME280;45825;45.434;9.116;2023-05-24T07:18:06;100009.25;;;23.19;58.85
59971;BME280;45825;45.434;9.116;2023-05-24T07:20:31;100014.28;;;23.13;58.22
59971;BME280;45825;45.434;9.116;2023-05-24T07:22:57;100014.97;;;23.15;58.41
59971;BME280;45825;45.434;9.116;2023-05-24T07:25:22;100009.06;;;23.20;58.18
59971;BME280;45825;45.434;9.116;2023-05-24T07:27:49;100017.94;;;23.29;57.87
59971;BME280;45825;45.434;9.116;2023-05-24T07:30:14;100018.09;;;23.36;58.07
59971;BME280;45825;45.434;9.116;2023-05-24T07:32:40;100017.41;;;23.42;58.11
59971;BME280;45825;45.434;9.116;2023-05-24T07:35:05;100012.84;;;23.42;58.34
59971;BME280;45825;45.434;9.116;2023-05-24T07:37:31;100008.13;;;23.44;58.63
59971;BME280;45825;45.434;9.116;2023-05-24T07:39:56;100007.47;;;23.42;57.67
59971;BME280;45825;45.434;9.116;2023-05-24T07:42:21;100008.97;;;23.45;56.79
59971;BME280;45825;45.434;9.116;2023-05-24T07:44:47;100003.91;;;23.50;56.78
59971;BME280;45825;45.434;9.116;2023-05-24T07:47:12;99998.06;;;23.47;56.69
59971;BME280;45825;45.434;9.116;2023-05-24T07:49:37;99993.03;;;23.43;57.38
59971;BME280;45825;45.434;9.116;2023-05-24T07:52:03;99997.53;;;23.51;57.32
59971;BME280;45825;45.434;9.116;2023-05-24T07:54:30;99997.31;;;23.61;56.53
59971;BME280;45825;45.434;9.116;2023-05-24T07:56:55;99996.13;;;23.64;56.37
59971;BME280;45825;45.434;9.116;2023-05-24T07:59:21;100000.56;;;23.48;56.40
59971;BME280;45825;45.434;9.116;2023-05-24T08:01:47;99995.47;;;23.30;57.28
59971;BME280;45825;45.434;9.116;2023-05-24T08:04:13;99997.25;;;23.38;57.50
59971;BME280;45825;45.434;9.116;2023-05-24T08:06:38;99994.41;;;23.39;58.06
59971;BME280;45825;45.434;9.116;2023-05-24T08:09:04;99995.19;;;23.48;57.73
59971;BME280;45825;45.434;9.116;2023-05-24T08:11:29;99998.00;;;23.55;57.55
59971;BME280;45825;45.434;9.116;2023-05-24T08:13:55;100002.97;;;23.66;57.47
59971;BME280;45825;45.434;9.116;2023-05-24T08:16:20;100001.31;;;23.65;58.20
59971;BME280;45825;45.434;9.116;2023-05-24T08:18:45;100000.53;;;23.56;58.57
59971;BME280;45825;45.434;9.116;2023-05-24T08:21:11;99995.81;;;23.58;59.07
59971;BME280;45825;45.434;9.116;2023-05-24T08:23:36;100007.16;;;23.69;59.02
59971;BME280;45825;45.434;9.116;2023-05-24T08:26:02;100005.91;;;23.56;59.39
59971;BME280;45825;45.434;9.116;2023-05-24T08:28:28;99999.75;;;23.48;59.51
59971;BME280;45825;45.434;9.116;2023-05-24T08:30:53;100001.00;;;23.60;59.08
59971;BME280;45825;45.434;9.116;2023-05-24T08:33:18;100002.69;;;23.61;59.76
59971;BME280;45825;45.434;9.116;2023-05-24T08:35:44;99997.78;;;23.65;59.73
59971;BME280;45825;45.434;9.116;2023-05-24T08:38:09;100000.41;;;23.73;60.38
59971;BME280;45825;45.434;9.116;2023-05-24T08:40:34;100002.41;;;23.79;60.03
59971;BME280;45825;45.434;9.116;2023-05-24T08:43:00;100002.16;;;23.89;60.03
59971;BME280;45825;45.434;9.116;2023-05-24T08:45:29;99993.56;;;23.94;59.82
59971;BME280;45825;45.434;9.116;2023-05-24T08:47:55;100004.97;;;23.96;59.39
59971;BME280;45825;45.434;9.116;2023-05-24T08:50:21;100003.03;;;23.81;59.16
59971;BME280;45825;45.434;9.116;2023-05-24T08:52:47;99995.69;;;23.98;58.23
59971;BME280;45825;45.434;9.116;2023-05-24T08:55:14;99991.66;;;24.03;57.88
59971;BME280;45825;45.434;9.116;2023-05-24T08:57:40;99985.69;;;24.16;58.01
59971;BME280;45825;45.434;9.116;2023-05-24T09:00:10;99985.22;;;24.12;57.76
59971;BME280;45825;45.434;9.116;2023-05-24T09:02:37;99981.53;;;24.13;57.91
59971;BME280;45825;45.434;9.116;2023-05-24T09:05:04;99977.81;;;24.14;57.25
59971;BME280;45825;45.434;9.116;2023-05-24T09:07:32;99976.75;;;24.23;56.91
59971;BME280;45825;45.434;9.116;2023-05-24T09:10:04;99980.09;;;24.40;56.98
59971;BME280;45825;45.434;9.116;2023-05-24T09:12:31;99978.22;;;24.41;55.46
59971;BME280;45825;45.434;9.116;2023-05-24T09:14:57;99979.91;;;24.57;55.12
59971;BME280;45825;45.434;9.116;2023-05-24T09:17:23;99969.47;;;24.62;53.54
59971;BME280;45825;45.434;9.116;2023-05-24T09:19:50;99977.44;;;24.55;52.76
59971;BME280;45825;45.434;9.116;2023-05-24T09:22:17;99968.16;;;24.58;52.52
59971;BME280;45825;45.434;9.116;2023-05-24T09:24:47;99971.78;;;24.65;52.25
59971;BME280;45825;45.434;9.116;2023-05-24T09:27:20;99970.19;;;24.71;53.04
59971;BME280;45825;45.434;9.116;2023-05-24T09:29:46;99963.91;;;24.79;51.82
59971;BME280;45825;45.434;9.116;2023-05-24T09:32:18;99967.44;;;24.79;51.50
59971;BME280;45825;45.434;9.116;2023-05-24T09:34:46;99968.25;;;24.95;52.46
59971;BME280;45825;45.434;9.116;2023-05-24T09:37:13;99967.78;;;25.06;51.26
59971;BME280;45825;45.434;9.116;2023-05-24T09:39:41;99954.25;;;25.00;47.84
59971;BME280;45825;45.434;9.116;2023-05-24T09:42:07;99954.97;;;25.08;48.19
59971;BME280;45825;45.434;9.116;2023-05-24T09:44:33;99953.50;;;25.21;49.28
59971;BME280;45825;45.434;9.116;2023-05-24T09:47:02;99952.25;;;25.23;46.60
59971;BME280;45825;45.434;9.116;2023-05-24T09:49:31;99950.94;;;25.34;47.55
59971;BME280;45825;45.434;9.116;2023-05-24T09:51:57;99954.16;;;25.45;47.78
59971;BME280;45825;45.434;9.116;2023-05-24T09:54:26;99951.19;;;25.55;47.51
59971;BME280;45825;45.434;9.116;2023-05-24T09:56:51;99957.94;;;25.65;48.63
59971;BME280;45825;45.434;9.116;2023-05-24T09:59:17;99953.75;;;25.63;47.04
59971;BME280;45825;45.434;9.116;2023-05-24T10:01:44;99957.34;;;25.70;47.75
59971;BME280;45825;45.434;9.116;2023-05-24T10:04:10;99960.63;;;25.87;47.77
59971;BME280;45825;45.434;9.116;2023-05-24T10:06:36;99946.19;;;25.95;46.95
59971;BME280;45825;45.434;9.116;2023-05-24T10:09:03;99951.56;;;25.95;44.79
59971;BME280;45825;45.434;9.116;2023-05-24T10:11:34;99947.75;;;26.11;44.42
59971;BME280;45825;45.434;9.116;2023-05-24T10:14:03;99937.59;;;26.13;44.25
59971;BME280;45825;45.434;9.116;2023-05-24T10:16:28;99935.09;;;26.12;43.19
59971;BME280;45825;45.434;9.116;2023-05-24T10:18:54;99938.06;;;26.17;42.29
59971;BME280;45825;45.434;9.116;2023-05-24T10:21:22;99938.63;;;26.34;42.90
59971;BME280;45825;45.434;9.116;2023-05-24T10:23:50;99932.81;;;26.37;41.24
59971;BME280;45825;45.434;9.116;2023-05-24T10:26:17;99930.63;;;26.54;40.61
59971;BME280;45825;45.434;9.116;2023-05-24T10:28:46;99930.44;;;26.56;41.09
59971;BME280;45825;45.434;9.116;2023-05-24T10:31:31;99929.56;;;26.48;39.94
59971;BME280;45825;45.434;9.116;2023-05-24T10:33:58;99922.22;;;26.64;40.28
59971;BME280;45825;45.434;9.116;2023-05-24T10:36:24;99925.41;;;26.81;42.42
59971;BME280;45825;45.434;9.116;2023-05-24T10:38:51;99926.09;;;26.55;39.70
59971;BME280;45825;45.434;9.116;2023-05-24T10:41:17;99920.06;;;26.53;39.70
59971;BME280;45825;45.434;9.116;2023-05-24T10:43:45;99926.22;;;26.82;40.69
59971;BME280;45825;45.434;9.116;2023-05-24T10:46:13;99915.31;;;27.03;40.66
59971;BME280;45825;45.434;9.116;2023-05-24T10:48:42;99916.03;;;27.26;43.25
59971;BME280;45825;45.434;9.116;2023-05-24T10:51:37;99914.63;;;27.50;43.96
59971;BME280;45825;45.434;9.116;2023-05-24T10:56:39;99912.41;;;27.74;42.58
59971;BME280;45825;45.434;9.116;2023-05-24T10:59:05;99907.41;;;27.84;40.78
59971;BME280;45825;45.434;9.116;2023-05-24T11:01:31;99900.34;;;27.90;39.03
59971;BME280;45825;45.434;9.116;2023-05-24T11:04:11;99902.84;;;27.92;41.78
59971;BME280;45825;45.434;9.116;2023-05-24T11:06:55;99896.59;;;27.84;39.07
59971;BME280;45825;45.434;9.116;2023-05-24T11:09:22;99891.41;;;27.69;38.72
59971;BME280;45825;45.434;9.116;2023-05-24T11:11:50;99881.84;;;27.67;39.75
59971;BME280;45825;45.434;9.116;2023-05-24T11:14:28;99883.91;;;27.71;40.40
59971;BME280;45825;45.434;9.116;2023-05-24T11:16:54;99878.06;;;28.08;41.34
59971;BME280;45825;45.434;9.116;2023-05-24T11:19:22;99868.91;;;28.16;40.02
59971;BME280;45825;45.434;9.116;2023-05-24T11:21:50;99863.69;;;28.35;41.31
59971;BME280;45825;45.434;9.116;2023-05-24T11:24:16;99861.72;;;28.62;41.92
59971;BME280;45825;45.434;9.116;2023-05-24T11:26:43;99861.09;;;28.67;41.12
59971;BME280;45825;45.434;9.116;2023-05-24T11:29:09;99859.34;;;28.86;41.15
59971;BME280;45825;45.434;9.116;2023-05-24T11:31:34;99848.28;;;28.94;41.19
59971;BME280;45825;45.434;9.116;2023-05-24T11:34:04;99844.38;;;28.77;38.42
59971;BME280;45825;45.434;9.116;2023-05-24T11:36:29;99841.31;;;28.73;38.25
59971;BME280;45825;45.434;9.116;2023-05-24T11:38:57;99847.47;;;28.87;39.57
59971;BME280;45825;45.434;9.116;2023-05-24T11:41:22;99844.38;;;28.77;38.42
59971;BME280;45825;45.434;9.116;2023-05-24T11:43:48;99851.84;;;28.88;39.43
59971;BME280;45825;45.434;9.116;2023-05-24T11:46:14;99852.34;;;28.65;41.25
59971;BME280;45825;45.434;9.116;2023-05-24T11:48:40;99848.81;;;28.64;45.13
59971;BME280;45825;45.434;9.116;2023-05-24T11:51:05;99839.63;;;28.72;44.03
59971;BME280;45825;45.434;9.116;2023-05-24T11:53:30;99839.81;;;28.77;44.46
59971;BME280;45825;45.434;9.116;2023-05-24T11:55:56;99837.72;;;28.79;43.46
59971;BME280;45825;45.434;9.116;2023-05-24T11:58:23;99834.75;;;28.94;39.49
59971;BME280;45825;45.434;9.116;2023-05-24T12:00:49;99827.75;;;28.73;37.99
59971;BME280;45825;45.434;9.116;2023-05-24T12:03:15;99831.88;;;28.89;41.26
59971;BME280;45825;45.434;9.116;2023-05-24T12:05:42;99833.34;;;28.85;39.12
59971;BME280;45825;45.434;9.116;2023-05-24T12:08:09;99829.19;;;28.82;38.71
59971;BME280;45825;45.434;9.116;2023-05-24T12:10:38;99824.63;;;28.83;39.18
59971;BME280;45825;45.434;9.116;2023-05-24T12:13:24;99823.56;;;28.84;37.62
59971;BME280;45825;45.434;9.116;2023-05-24T12:15:53;99828.22;;;28.63;38.15
59971;BME280;45825;45.434;9.116;2023-05-24T12:18:20;99825.22;;;28.78;39.35
59971;BME280;45825;45.434;9.116;2023-05-24T12:20:47;99813.59;;;28.84;38.01
59971;BME280;45825;45.434;9.116;2023-05-24T12:23:13;99825.31;;;28.65;38.16
59971;BME280;45825;45.434;9.116;2023-05-24T12:25:38;99813.00;;;28.69;39.62
59971;BME280;45825;45.434;9.116;2023-05-24T12:28:03;99813.88;;;28.63;38.07
59971;BME280;45825;45.434;9.116;2023-05-24T12:30:29;99807.22;;;28.97;38.20
59971;BME280;45825;45.434;9.116;2023-05-24T12:32:56;99805.00;;;28.88;37.30
59971;BME280;45825;45.434;9.116;2023-05-24T12:35:22;99802.88;;;28.96;36.44
59971;BME280;45825;45.434;9.116;2023-05-24T12:37:48;99794.69;;;28.64;36.64
59971;BME280;45825;45.434;9.116;2023-05-24T12:40:18;99798.16;;;28.85;36.92
59971;BME280;45825;45.434;9.116;2023-05-24T12:42:54;99796.69;;;28.89;36.20
59971;BME280;45825;45.434;9.116;2023-05-24T12:45:25;99785.41;;;29.24;36.79
59971;BME280;45825;45.434;9.116;2023-05-24T12:47:52;99781.84;;;29.24;35.52
59971;BME280;45825;45.434;9.116;2023-05-24T12:50:18;99779.34;;;29.54;37.20
59971;BME280;45825;45.434;9.116;2023-05-24T12:52:45;99776.50;;;29.68;34.57
59971;BME280;45825;45.434;9.116;2023-05-24T12:55:12;99764.91;;;29.61;34.11
59971;BME280;45825;45.434;9.116;2023-05-24T12:57:38;99770.19;;;29.74;34.03
59971;BME280;45825;45.434;9.116;2023-05-24T13:00:04;99762.25;;;29.54;33.34
59971;BME280;45825;45.434;9.116;2023-05-24T13:02:29;99768.25;;;29.05;34.47
59971;BME280;45825;45.434;9.116;2023-05-24T13:04:55;99759.53;;;29.28;34.09
59971;BME280;45825;45.434;9.116;2023-05-24T13:07:20;99752.31;;;29.22;34.27
59971;BME280;45825;45.434;9.116;2023-05-24T13:09:46;99756.44;;;29.50;35.10
59971;BME280;45825;45.434;9.116;2023-05-24T13:12:12;99758.94;;;29.52;34.21
59971;BME280;45825;45.434;9.116;2023-05-24T13:14:37;99748.94;;;29.27;34.20
59971;BME280;45825;45.434;9.116;2023-05-24T13:17:02;99750.66;;;29.14;34.82
59971;BME280;45825;45.434;9.116;2023-05-24T13:19:28;99740.41;;;29.23;36.52
59971;BME280;45825;45.434;9.116;2023-05-24T13:21:53;99737.25;;;29.26;36.23
59971;BME280;45825;45.434;9.116;2023-05-24T13:24:19;99720.69;;;29.16;35.34
59971;BME280;45825;45.434;9.116;2023-05-24T13:26:44;99727.69;;;29.24;36.15
59971;BME280;45825;45.434;9.116;2023-05-24T13:29:11;99734.53;;;29.01;34.83
59971;BME280;45825;45.434;9.116;2023-05-24T13:31:36;99730.84;;;28.95;35.81
59971;BME280;45825;45.434;9.116;2023-05-24T13:34:02;99730.06;;;28.81;35.19
59971;BME280;45825;45.434;9.116;2023-05-24T13:36:27;99729.94;;;28.69;35.67
59971;BME280;45825;45.434;9.116;2023-05-24T13:38:52;99711.72;;;28.58;35.78
59971;BME280;45825;45.434;9.116;2023-05-24T13:41:18;99714.94;;;28.35;36.11
59971;BME280;45825;45.434;9.116;2023-05-24T13:43:44;99718.16;;;28.18;36.71
59971;BME280;45825;45.434;9.116;2023-05-24T13:46:09;99722.75;;;28.04;36.09
59971;BME280;45825;45.434;9.116;2023-05-24T13:48:34;99721.75;;;27.98;36.04
59971;BME280;45825;45.434;9.116;2023-05-24T13:51:00;99717.72;;;28.14;36.87
59971;BME280;45825;45.434;9.116;2023-05-24T13:53:26;99714.63;;;28.11;36.65
59971;BME280;45825;45.434;9.116;2023-05-24T13:55:51;99719.41;;;28.09;37.01
59971;BME280;45825;45.434;9.116;2023-05-24T13:58:17;99706.13;;;28.00;37.37
59971;BME280;45825;45.434;9.116;2023-05-24T14:00:43;99712.63;;;27.79;38.28
59971;BME280;45825;45.434;9.116;2023-05-24T14:03:08;99705.41;;;27.46;39.20
59971;BME280;45825;45.434;9.116;2023-05-24T14:05:36;99703.56;;;27.40;39.81
59971;BME280;45825;45.434;9.116;2023-05-24T14:08:01;99704.16;;;27.42;39.39
59971;BME280;45825;45.434;9.116;2023-05-24T14:10:31;99707.47;;;27.44;39.73
59971;BME280;45825;45.434;9.116;2023-05-24T14:12:57;99701.28;;;27.23;39.24
59971;BME280;45825;45.434;9.116;2023-05-24T14:15:23;99711.25;;;27.16;39.50
59971;BME280;45825;45.434;9.116;2023-05-24T14:17:48;99725.38;;;27.11;39.92
59971;BME280;45825;45.434;9.116;2023-05-24T14:20:13;99720.59;;;27.33;39.84
59971;BME280;45825;45.434;9.116;2023-05-24T14:22:38;99739.47;;;27.40;39.83
59971;BME280;45825;45.434;9.116;2023-05-24T14:25:04;99750.69;;;27.37;39.43
59971;BME280;45825;45.434;9.116;2023-05-24T14:27:30;99759.44;;;27.32;39.58
59971;BME280;45825;45.434;9.116;2023-05-24T14:29:55;99754.88;;;27.33;39.57
59971;BME280;45825;45.434;9.116;2023-05-24T14:32:21;99781.44;;;27.16;42.00
59971;BME280;45825;45.434;9.116;2023-05-24T14:34:46;99766.59;;;26.71;43.53
59971;BME280;45825;45.434;9.116;2023-05-24T14:37:12;99754.88;;;26.37;44.86
59971;BME280;45825;45.434;9.116;2023-05-24T14:39:37;99747.31;;;26.19;45.73
59971;BME280;45825;45.434;9.116;2023-05-24T14:42:02;99755.84;;;26.22;46.97
59971;BME280;45825;45.434;9.116;2023-05-24T14:44:28;99752.97;;;26.24;46.38
59971;BME280;45825;45.434;9.116;2023-05-24T14:46:53;99746.47;;;26.18;47.04
59971;BME280;45825;45.434;9.116;2023-05-24T14:49:18;99743.78;;;26.18;43.40
59971;BME280;45825;45.434;9.116;2023-05-24T14:51:46;99744.88;;;26.24;42.67
59971;BME280;45825;45.434;9.116;2023-05-24T14:54:12;99742.94;;;26.18;41.40
59971;BME280;45825;45.434;9.116;2023-05-24T14:56:38;99739.00;;;26.14;42.44
59971;BME280;45825;45.434;9.116;2023-05-24T14:59:03;99727.75;;;26.03;41.06